sensor_id;sensor_type;location;lat;lon;timestamp;temperature;humidity
12885;DHT22;6510;51.362;7.370;2022-12-29T00:02:00;8.60;99.90
12885;DHT22;6510;51.362;7.370;2022-12-29T00:04:26;8.70;99.90
12885;DHT22;6510;51.362;7.370;2022-12-29T00:06:52;8.70;99.90
12885;DHT22;6510;51.362;7.370;2022-12-29T00:09:17;8.80;99.90
12885;DHT22;6510;51.362;7.370;2022-12-29T00:11:43;8.70;99.90
12885;DHT22;6510;51.362;7.370;2022-12-29T00:14:10;8.80;99.90
12885;DHT22;6510;51.362;7.370;2022-12-29T00:16:55;8.80;99.90
12885;DHT22;6510;51.362;7.370;2022-12-29T00:19:21;8.80;99.90
12885;DHT22;6510;51.362;7.370;2022-12-29T00:22:05;8.70;99.90
12885;DHT22;6510;51.362;7.370;2022-12-29T00:24:49;8.80;99.90
12885;DHT22;6510;51.362;7.370;2022-12-29T00:27:31;8.70;99.90
12885;DHT22;6510;51.362;7.370;2022-12-29T00:30:18;8.70;99.90
12885;DHT22;6510;51.362;7.370;2022-12-29T00:33:10;8.70;99.90
12885;DHT22;6510;51.362;7.370;2022-12-29T00:36:01;8.80;99.90
12885;DHT22;6510;51.362;7.370;2022-12-29T00:38:28;8.90;99.90
12885;DHT22;6510;51.362;7.370;2022-12-29T00:41:12;8.80;99.90
12885;DHT22;6510;51.362;7.370;2022-12-29T00:43:56;8.80;99.90
12885;DHT22;6510;51.362;7.370;2022-12-29T00:46:35;8.90;99.90
12885;DHT22;6510;51.362;7.370;2022-12-29T00:49:02;8.90;99.90
12885;DHT22;6510;51.362;7.370;2022-12-29T00:51:47;8.90;99.90
12885;DHT22;6510;51.362;7.370;2022-12-29T00:54:13;8.90;99.90
12885;DHT22;6510;51.362;7.370;2022-12-29T00:56:39;8.90;99.90
12885;DHT22;6510;51.362;7.370;2022-12-29T00:59:08;8.90;99.90
12885;DHT22;6510;51.362;7.370;2022-12-29T01:01:35;9.00;99.90
12885;DHT22;6510;51.362;7.370;2022-12-29T01:04:00;9.00;99.90
12885;DHT22;6510;51.362;7.370;2022-12-29T01:06:26;9.00;99.90
12885;DHT22;6510;51.362;7.370;2022-12-29T01:08:52;9.00;99.90
12885;DHT22;6510;51.362;7.370;2022-12-29T01:11:40;9.00;99.90
12885;DHT22;6510;51.362;7.370;2022-12-29T01:14:06;9.00;99.90
12885;DHT22;6510;51.362;7.370;2022-12-29T01:16:33;9.00;99.90
12885;DHT22;6510;51.362;7.370;2022-12-29T01:18:59;9.00;99.90
12885;DHT22;6510;51.362;7.370;2022-12-29T01:21:25;9.00;99.90
12885;DHT22;6510;51.362;7.370;2022-12-29T01:23:51;9.00;99.90
12885;DHT22;6510;51.362;7.370;2022-12-29T01:26:17;9.10;99.90
12885;DHT22;6510;51.362;7.370;2022-12-29T01:28:43;9.00;99.90
12885;DHT22;6510;51.362;7.370;2022-12-29T01:31:10;9.10;99.90
12885;DHT22;6510;51.362;7.370;2022-12-29T01:33:36;9.10;99.90
12885;DHT22;6510;51.362;7.370;2022-12-29T01:36:08;9.00;99.90
12885;DHT22;6510;51.362;7.370;2022-12-29T01:38:35;9.10;99.90
12885;DHT22;6510;51.362;7.370;2022-12-29T01:41:01;9.10;99.90
12885;DHT22;6510;51.362;7.370;2022-12-29T01:49:14;9.10;99.90
12885;DHT22;6510;51.362;7.370;2022-12-29T01:51:53;9.10;99.90
12885;DHT22;6510;51.362;7.370;2022-12-29T01:54:25;9.20;99.90
12885;DHT22;6510;51.362;7.370;2022-12-29T01:56:52;9.10;99.90
12885;DHT22;6510;51.362;7.370;2022-12-29T01:59:24;9.20;99.90
12885;DHT22;6510;51.362;7.370;2022-12-29T02:01:51;9.10;99.90
12885;DHT22;6510;51.362;7.370;2022-12-29T02:04:17;9.10;99.90
12885;DHT22;6510;51.362;7.370;2022-12-29T02:06:57;9.20;99.90
12885;DHT22;6510;51.362;7.370;2022-12-29T02:09:24;9.10;99.90
12885;DHT22;6510;51.362;7.370;2022-12-29T02:11:51;9.20;99.90
12885;DHT22;6510;51.362;7.370;2022-12-29T02:14:17;9.10;99.90
12885;DHT22;6510;51.362;7.370;2022-12-29T02:22:35;9.30;99.90
12885;DHT22;6510;51.362;7.370;2022-12-29T02:28:16;9.10;99.90
12885;DHT22;6510;51.362;7.370;2022-12-29T02:30:57;9.10;99.90
12885;DHT22;6510;51.362;7.370;2022-12-29T02:36:39;9.10;99.90
12885;DHT22;6510;51.362;7.370;2022-12-29T02:47:47;9.20;99.90
12885;DHT22;6510;51.362;7.370;2022-12-29T02:50:23;9.40;99.90
12885;DHT22;6510;51.362;7.370;2022-12-29T02:53:00;9.40;99.90
12885;DHT22;6510;51.362;7.370;2022-12-29T02:55:27;9.50;99.90
12885;DHT22;6510;51.362;7.370;2022-12-29T02:58:20;9.50;99.90
12885;DHT22;6510;51.362;7.370;2022-12-29T03:01:06;9.50;99.90
12885;DHT22;6510;51.362;7.370;2022-12-29T03:12:30;9.70;99.90
12885;DHT22;6510;51.362;7.370;2022-12-29T03:15:29;9.60;99.90
12885;DHT22;6510;51.362;7.370;2022-12-29T03:18:37;9.70;99.90
12885;DHT22;6510;51.362;7.370;2022-12-29T03:21:16;9.80;99.90
12885;DHT22;6510;51.362;7.370;2022-12-29T03:23:49;9.70;99.90
12885;DHT22;6510;51.362;7.370;2022-12-29T03:26:16;9.60;99.90
12885;DHT22;6510;51.362;7.370;2022-12-29T03:29:02;9.50;99.90
12885;DHT22;6510;51.362;7.370;2022-12-29T03:31:29;9.40;99.90
12885;DHT22;6510;51.362;7.370;2022-12-29T03:33:55;9.30;99.90
12885;DHT22;6510;51.362;7.370;2022-12-29T03:36:35;9.10;99.90
12885;DHT22;6510;51.362;7.370;2022-12-29T03:39:08;9.00;99.90
12885;DHT22;6510;51.362;7.370;2022-12-29T03:41:37;8.90;99.90
12885;DHT22;6510;51.362;7.370;2022-12-29T03:44:06;8.80;99.90
12885;DHT22;6510;51.362;7.370;2022-12-29T03:46:32;8.80;99.90
12885;DHT22;6510;51.362;7.370;2022-12-29T03:48:57;8.80;99.90
12885;DHT22;6510;51.362;7.370;2022-12-29T03:51:23;8.80;99.90
12885;DHT22;6510;51.362;7.370;2022-12-29T03:53:49;8.80;99.90
12885;DHT22;6510;51.362;7.370;2022-12-29T03:56:14;8.80;99.90
12885;DHT22;6510;51.362;7.370;2022-12-29T03:58:40;8.80;99.90
12885;DHT22;6510;51.362;7.370;2022-12-29T04:01:06;8.80;99.90
12885;DHT22;6510;51.362;7.370;2022-12-29T04:03:31;8.80;99.90
12885;DHT22;6510;51.362;7.370;2022-12-29T04:05:57;8.80;99.90
12885;DHT22;6510;51.362;7.370;2022-12-29T04:08:22;8.80;99.90
12885;DHT22;6510;51.362;7.370;2022-12-29T04:10:49;8.90;99.90
12885;DHT22;6510;51.362;7.370;2022-12-29T04:13:15;8.90;99.90
12885;DHT22;6510;51.362;7.370;2022-12-29T04:15:40;8.90;99.90
12885;DHT22;6510;51.362;7.370;2022-12-29T04:18:07;9.00;99.90
12885;DHT22;6510;51.362;7.370;2022-12-29T04:20:33;9.00;99.90
12885;DHT22;6510;51.362;7.370;2022-12-29T04:23:17;9.00;99.90
12885;DHT22;6510;51.362;7.370;2022-12-29T04:25:45;9.00;99.90
12885;DHT22;6510;51.362;7.370;2022-12-29T04:28:13;9.10;99.90
12885;DHT22;6510;51.362;7.370;2022-12-29T04:30:38;9.20;99.90
12885;DHT22;6510;51.362;7.370;2022-12-29T04:33:04;9.20;99.90
12885;DHT22;6510;51.362;7.370;2022-12-29T04:35:29;9.30;99.90
12885;DHT22;6510;51.362;7.370;2022-12-29T04:37:55;9.30;99.90
12885;DHT22;6510;51.362;7.370;2022-12-29T04:40:21;9.30;99.90
12885;DHT22;6510;51.362;7.370;2022-12-29T04:42:46;9.20;99.90
12885;DHT22;6510;51.362;7.370;2022-12-29T04:45:12;9.40;99.90
12885;DHT22;6510;51.362;7.370;2022-12-29T04:47:37;9.40;99.90
12885;DHT22;6510;51.362;7.370;2022-12-29T04:50:04;9.50;99.90
12885;DHT22;6510;51.362;7.370;2022-12-29T04:52:29;9.60;99.90
12885;DHT22;6510;51.362;7.370;2022-12-29T04:54:55;9.60;99.90
12885;DHT22;6510;51.362;7.370;2022-12-29T04:57:21;9.70;99.90
12885;DHT22;6510;51.362;7.370;2022-12-29T04:59:46;9.70;99.90
12885;DHT22;6510;51.362;7.370;2022-12-29T05:02:12;9.60;99.90
12885;DHT22;6510;51.362;7.370;2022-12-29T05:04:37;9.70;99.90
12885;DHT22;6510;51.362;7.370;2022-12-29T05:07:03;9.60;99.90
12885;DHT22;6510;51.362;7.370;2022-12-29T05:09:28;9.90;99.90
12885;DHT22;6510;51.362;7.370;2022-12-29T05:11:55;9.90;99.90
12885;DHT22;6510;51.362;7.370;2022-12-29T05:14:21;9.80;99.90
12885;DHT22;6510;51.362;7.370;2022-12-29T05:16:47;9.70;99.90
12885;DHT22;6510;51.362;7.370;2022-12-29T05:19:13;9.70;99.90
12885;DHT22;6510;51.362;7.370;2022-12-29T05:21:38;10.00;99.90
12885;DHT22;6510;51.362;7.370;2022-12-29T05:24:04;10.00;99.90
12885;DHT22;6510;51.362;7.370;2022-12-29T05:26:30;10.00;99.90
12885;DHT22;6510;51.362;7.370;2022-12-29T05:28:55;10.10;99.90
12885;DHT22;6510;51.362;7.370;2022-12-29T05:31:21;10.00;99.90
12885;DHT22;6510;51.362;7.370;2022-12-29T05:33:46;10.00;99.90
12885;DHT22;6510;51.362;7.370;2022-12-29T05:36:12;10.10;99.90
12885;DHT22;6510;51.362;7.370;2022-12-29T05:38:38;10.00;99.90
12885;DHT22;6510;51.362;7.370;2022-12-29T05:41:04;10.10;99.90
12885;DHT22;6510;51.362;7.370;2022-12-29T05:43:29;10.10;99.90
12885;DHT22;6510;51.362;7.370;2022-12-29T05:45:56;10.10;99.90
12885;DHT22;6510;51.362;7.370;2022-12-29T05:48:22;10.00;99.90
12885;DHT22;6510;51.362;7.370;2022-12-29T05:50:51;10.10;99.90
12885;DHT22;6510;51.362;7.370;2022-12-29T05:53:17;10.00;99.90
12885;DHT22;6510;51.362;7.370;2022-12-29T05:55:44;10.30;99.90
12885;DHT22;6510;51.362;7.370;2022-12-29T05:58:10;10.30;99.90
12885;DHT22;6510;51.362;7.370;2022-12-29T06:00:35;10.30;99.90
12885;DHT22;6510;51.362;7.370;2022-12-29T06:03:01;10.20;99.90
12885;DHT22;6510;51.362;7.370;2022-12-29T06:05:27;10.10;99.90
12885;DHT22;6510;51.362;7.370;2022-12-29T06:07:52;10.00;99.90
12885;DHT22;6510;51.362;7.370;2022-12-29T06:10:18;10.00;99.90
12885;DHT22;6510;51.362;7.370;2022-12-29T06:12:44;9.90;99.90
12885;DHT22;6510;51.362;7.370;2022-12-29T06:15:10;9.90;99.90
12885;DHT22;6510;51.362;7.370;2022-12-29T06:17:35;10.00;99.90
12885;DHT22;6510;51.362;7.370;2022-12-29T06:20:01;9.90;99.90
12885;DHT22;6510;51.362;7.370;2022-12-29T06:22:27;10.10;99.90
12885;DHT22;6510;51.362;7.370;2022-12-29T06:24:53;10.00;99.90
12885;DHT22;6510;51.362;7.370;2022-12-29T06:27:19;10.10;99.90
12885;DHT22;6510;51.362;7.370;2022-12-29T06:29:44;10.10;99.90
12885;DHT22;6510;51.362;7.370;2022-12-29T06:32:10;10.10;99.90
12885;DHT22;6510;51.362;7.370;2022-12-29T06:34:36;10.10;99.90
12885;DHT22;6510;51.362;7.370;2022-12-29T06:37:01;10.10;99.90
12885;DHT22;6510;51.362;7.370;2022-12-29T06:39:27;10.10;99.90
12885;DHT22;6510;51.362;7.370;2022-12-29T06:41:54;10.10;99.90
12885;DHT22;6510;51.362;7.370;2022-12-29T06:44:22;10.10;99.90
12885;DHT22;6510;51.362;7.370;2022-12-29T06:46:49;10.00;99.90
12885;DHT22;6510;51.362;7.370;2022-12-29T06:49:14;10.00;99.90
12885;DHT22;6510;51.362;7.370;2022-12-29T06:51:40;10.00;99.90
12885;DHT22;6510;51.362;7.370;2022-12-29T06:54:06;10.00;99.90
12885;DHT22;6510;51.362;7.370;2022-12-29T06:56:31;9.90;99.90
12885;DHT22;6510;51.362;7.370;2022-12-29T06:59:00;10.00;99.90
12885;DHT22;6510;51.362;7.370;2022-12-29T07:01:26;10.00;99.90
12885;DHT22;6510;51.362;7.370;2022-12-29T07:03:52;10.00;99.90
12885;DHT22;6510;51.362;7.370;2022-12-29T07:06:18;10.00;99.90
12885;DHT22;6510;51.362;7.370;2022-12-29T07:08:44;10.10;99.90
12885;DHT22;6510;51.362;7.370;2022-12-29T07:11:10;10.00;99.90
12885;DHT22;6510;51.362;7.370;2022-12-29T07:13:36;10.10;99.90
12885;DHT22;6510;51.362;7.370;2022-12-29T07:16:06;9.90;99.90
12885;DHT22;6510;51.362;7.370;2022-12-29T07:18:32;9.60;99.90
12885;DHT22;6510;51.362;7.370;2022-12-29T07:20:57;9.60;99.90
12885;DHT22;6510;51.362;7.370;2022-12-29T07:23:23;9.70;99.90
12885;DHT22;6510;51.362;7.370;2022-12-29T07:25:48;9.70;99.90
12885;DHT22;6510;51.362;7.370;2022-12-29T07:28:14;9.80;99.90
12885;DHT22;6510;51.362;7.370;2022-12-29T07:30:40;9.70;99.90
12885;DHT22;6510;51.362;7.370;2022-12-29T07:33:05;9.70;99.90
12885;DHT22;6510;51.362;7.370;2022-12-29T07:35:32;9.80;99.90
12885;DHT22;6510;51.362;7.370;2022-12-29T07:37:58;9.80;99.90
12885;DHT22;6510;51.362;7.370;2022-12-29T07:40:24;9.70;99.90
12885;DHT22;6510;51.362;7.370;2022-12-29T07:42:49;9.60;99.90
12885;DHT22;6510;51.362;7.370;2022-12-29T07:45:15;9.60;99.90
12885;DHT22;6510;51.362;7.370;2022-12-29T07:47:40;9.70;99.90
12885;DHT22;6510;51.362;7.370;2022-12-29T07:50:06;9.20;99.90
12885;DHT22;6510;51.362;7.370;2022-12-29T07:52:32;9.10;99.90
12885;DHT22;6510;51.362;7.370;2022-12-29T07:54:57;9.30;99.90
12885;DHT22;6510;51.362;7.370;2022-12-29T07:57:23;9.50;99.90
12885;DHT22;6510;51.362;7.370;2022-12-29T07:59:48;9.30;99.90
12885;DHT22;6510;51.362;7.370;2022-12-29T08:02:14;9.30;99.90
12885;DHT22;6510;51.362;7.370;2022-12-29T08:04:40;9.40;99.90
12885;DHT22;6510;51.362;7.370;2022-12-29T08:07:05;9.40;99.90
12885;DHT22;6510;51.362;7.370;2022-12-29T08:09:31;9.40;99.90
12885;DHT22;6510;51.362;7.370;2022-12-29T08:11:56;9.70;99.90
12885;DHT22;6510;51.362;7.370;2022-12-29T08:14:22;9.60;99.90
12885;DHT22;6510;51.362;7.370;2022-12-29T08:16:48;9.60;99.90
12885;DHT22;6510;51.362;7.370;2022-12-29T08:19:13;9.70;99.90
12885;DHT22;6510;51.362;7.370;2022-12-29T08:21:39;9.80;99.90
12885;DHT22;6510;51.362;7.370;2022-12-29T08:24:05;9.70;99.90
12885;DHT22;6510;51.362;7.370;2022-12-29T08:26:31;9.60;99.90
12885;DHT22;6510;51.362;7.370;2022-12-29T08:28:57;9.70;99.90
12885;DHT22;6510;51.362;7.370;2022-12-29T08:31:23;9.80;99.90
12885;DHT22;6510;51.362;7.370;2022-12-29T08:33:49;9.70;99.90
12885;DHT22;6510;51.362;7.370;2022-12-29T08:36:15;9.70;99.90
12885;DHT22;6510;51.362;7.370;2022-12-29T08:38:41;9.70;99.90
12885;DHT22;6510;51.362;7.370;2022-12-29T08:41:06;9.90;99.90
12885;DHT22;6510;51.362;7.370;2022-12-29T08:43:35;9.80;99.90
12885;DHT22;6510;51.362;7.370;2022-12-29T08:46:01;9.80;99.90
12885;DHT22;6510;51.362;7.370;2022-12-29T08:48:27;9.80;99.90
12885;DHT22;6510;51.362;7.370;2022-12-29T08:50:52;9.70;99.90
12885;DHT22;6510;51.362;7.370;2022-12-29T08:53:19;9.80;99.90
12885;DHT22;6510;51.362;7.370;2022-12-29T08:55:46;9.70;99.90
12885;DHT22;6510;51.362;7.370;2022-12-29T08:58:12;9.70;99.90
12885;DHT22;6510;51.362;7.370;2022-12-29T09:00:40;9.70;99.90
12885;DHT22;6510;51.362;7.370;2022-12-29T09:03:06;9.80;99.90
12885;DHT22;6510;51.362;7.370;2022-12-29T09:05:32;9.80;99.90
12885;DHT22;6510;51.362;7.370;2022-12-29T09:07:57;9.60;99.90
12885;DHT22;6510;51.362;7.370;2022-12-29T09:10:23;9.50;99.90
12885;DHT22;6510;51.362;7.370;2022-12-29T09:12:49;9.00;99.90
12885;DHT22;6510;51.362;7.370;2022-12-29T09:15:14;8.60;99.90
12885;DHT22;6510;51.362;7.370;2022-12-29T09:17:41;8.40;99.90
12885;DHT22;6510;51.362;7.370;2022-12-29T09:20:19;8.20;99.90
12885;DHT22;6510;51.362;7.370;2022-12-29T09:22:46;8.30;99.90
12885;DHT22;6510;51.362;7.370;2022-12-29T09:25:12;8.20;99.90
12885;DHT22;6510;51.362;7.370;2022-12-29T09:27:38;8.20;99.90
12885;DHT22;6510;51.362;7.370;2022-12-29T09:30:06;8.10;99.90
12885;DHT22;6510;51.362;7.370;2022-12-29T09:32:32;8.20;99.90
12885;DHT22;6510;51.362;7.370;2022-12-29T09:34:58;9.60;99.90
12885;DHT22;6510;51.362;7.370;2022-12-29T09:37:23;8.80;99.90
12885;DHT22;6510;51.362;7.370;2022-12-29T09:39:49;8.70;99.90
12885;DHT22;6510;51.362;7.370;2022-12-29T09:47:34;8.90;99.90
12885;DHT22;6510;51.362;7.370;2022-12-29T09:50:30;9.00;99.90
12885;DHT22;6510;51.362;7.370;2022-12-29T09:53:20;8.90;99.90
12885;DHT22;6510;51.362;7.370;2022-12-29T09:55:54;8.80;99.90
12885;DHT22;6510;51.362;7.370;2022-12-29T09:58:23;8.90;99.90
12885;DHT22;6510;51.362;7.370;2022-12-29T10:00:56;9.10;99.90
12885;DHT22;6510;51.362;7.370;2022-12-29T10:03:32;9.30;99.90
12885;DHT22;6510;51.362;7.370;2022-12-29T10:06:15;9.40;99.90
12885;DHT22;6510;51.362;7.370;2022-12-29T10:20:13;9.50;99.90
12885;DHT22;6510;51.362;7.370;2022-12-29T10:25:19;10.30;99.90
12885;DHT22;6510;51.362;7.370;2022-12-29T10:27:50;10.40;99.90
12885;DHT22;6510;51.362;7.370;2022-12-29T10:30:16;10.00;99.90
12885;DHT22;6510;51.362;7.370;2022-12-29T10:33:00;9.90;99.90
12885;DHT22;6510;51.362;7.370;2022-12-29T10:35:34;9.80;99.90
12885;DHT22;6510;51.362;7.370;2022-12-29T10:43:48;9.70;99.90
12885;DHT22;6510;51.362;7.370;2022-12-29T10:46:24;9.80;99.90
12885;DHT22;6510;51.362;7.370;2022-12-29T10:48:50;9.80;99.90
12885;DHT22;6510;51.362;7.370;2022-12-29T10:51:27;9.80;99.90
12885;DHT22;6510;51.362;7.370;2022-12-29T10:54:05;9.90;99.90
12885;DHT22;6510;51.362;7.370;2022-12-29T10:56:54;9.90;99.90
12885;DHT22;6510;51.362;7.370;2022-12-29T10:59:29;10.00;99.90
12885;DHT22;6510;51.362;7.370;2022-12-29T11:04:57;10.30;99.90
12885;DHT22;6510;51.362;7.370;2022-12-29T11:07:28;10.30;99.90
12885;DHT22;6510;51.362;7.370;2022-12-29T11:09:56;10.30;99.90
12885;DHT22;6510;51.362;7.370;2022-12-29T11:12:40;10.50;99.90
12885;DHT22;6510;51.362;7.370;2022-12-29T11:17:47;10.20;99.90
12885;DHT22;6510;51.362;7.370;2022-12-29T11:22:56;10.00;99.90
12885;DHT22;6510;51.362;7.370;2022-12-29T11:25:21;9.90;99.90
12885;DHT22;6510;51.362;7.370;2022-12-29T11:28:16;9.90;99.90
12885;DHT22;6510;51.362;7.370;2022-12-29T11:30:42;9.80;99.90
12885;DHT22;6510;51.362;7.370;2022-12-29T11:33:08;9.90;99.90
12885;DHT22;6510;51.362;7.370;2022-12-29T11:35:42;9.90;99.90
12885;DHT22;6510;51.362;7.370;2022-12-29T11:38:23;9.80;99.90
12885;DHT22;6510;51.362;7.370;2022-12-29T11:40:50;9.90;99.90
12885;DHT22;6510;51.362;7.370;2022-12-29T11:43:29;10.00;99.90
12885;DHT22;6510;51.362;7.370;2022-12-29T11:45:57;9.90;99.90
12885;DHT22;6510;51.362;7.370;2022-12-29T11:48:23;9.90;99.90
12885;DHT22;6510;51.362;7.370;2022-12-29T11:50:57;9.90;99.90
12885;DHT22;6510;51.362;7.370;2022-12-29T11:56:04;9.80;99.90
12885;DHT22;6510;51.362;7.370;2022-12-29T11:58:33;9.70;99.90
12885;DHT22;6510;51.362;7.370;2022-12-29T12:01:06;9.70;99.90
12885;DHT22;6510;51.362;7.370;2022-12-29T12:03:37;9.70;99.90
12885;DHT22;6510;51.362;7.370;2022-12-29T12:06:07;9.90;99.90
12885;DHT22;6510;51.362;7.370;2022-12-29T12:08:53;9.80;99.90
12885;DHT22;6510;51.362;7.370;2022-12-29T12:11:28;9.80;99.90
12885;DHT22;6510;51.362;7.370;2022-12-29T12:14:17;9.80;99.90
12885;DHT22;6510;51.362;7.370;2022-12-29T12:16:55;9.80;99.90
12885;DHT22;6510;51.362;7.370;2022-12-29T12:19:32;9.80;99.90
12885;DHT22;6510;51.362;7.370;2022-12-29T12:22:20;9.70;99.90
12885;DHT22;6510;51.362;7.370;2022-12-29T12:25:01;9.70;99.90
12885;DHT22;6510;51.362;7.370;2022-12-29T12:27:39;9.70;99.90
12885;DHT22;6510;51.362;7.370;2022-12-29T12:32:46;9.60;99.90
12885;DHT22;6510;51.362;7.370;2022-12-29T12:35:16;9.70;99.90
12885;DHT22;6510;51.362;7.370;2022-12-29T12:37:57;9.60;99.90
12885;DHT22;6510;51.362;7.370;2022-12-29T12:40:41;9.60;99.90
12885;DHT22;6510;51.362;7.370;2022-12-29T12:54:10;9.50;99.90
12885;DHT22;6510;51.362;7.370;2022-12-29T13:13:10;9.40;99.90
12885;DHT22;6510;51.362;7.370;2022-12-29T13:24:10;9.50;99.90
12885;DHT22;6510;51.362;7.370;2022-12-29T13:32:50;9.40;99.90
12885;DHT22;6510;51.362;7.370;2022-12-29T13:38:00;9.40;99.90
12885;DHT22;6510;51.362;7.370;2022-12-29T13:40:36;9.40;99.90
12885;DHT22;6510;51.362;7.370;2022-12-29T13:43:04;9.50;99.90
12885;DHT22;6510;51.362;7.370;2022-12-29T13:45:31;9.50;99.90
12885;DHT22;6510;51.362;7.370;2022-12-29T13:48:15;9.50;99.90
12885;DHT22;6510;51.362;7.370;2022-12-29T13:50:53;9.40;99.90
12885;DHT22;6510;51.362;7.370;2022-12-29T13:56:07;9.40;99.90
12885;DHT22;6510;51.362;7.370;2022-12-29T14:01:28;9.40;99.90
12885;DHT22;6510;51.362;7.370;2022-12-29T14:03:57;9.50;99.90
12885;DHT22;6510;51.362;7.370;2022-12-29T14:06:30;9.50;99.90
12885;DHT22;6510;51.362;7.370;2022-12-29T14:09:04;9.40;99.90
12885;DHT22;6510;51.362;7.370;2022-12-29T14:11:39;9.40;99.90
12885;DHT22;6510;51.362;7.370;2022-12-29T14:14:19;9.40;99.90
12885;DHT22;6510;51.362;7.370;2022-12-29T14:16:47;9.40;99.90
12885;DHT22;6510;51.362;7.370;2022-12-29T14:19:16;9.50;99.90
12885;DHT22;6510;51.362;7.370;2022-12-29T14:21:55;9.40;99.90
12885;DHT22;6510;51.362;7.370;2022-12-29T14:24:40;9.40;99.90
12885;DHT22;6510;51.362;7.370;2022-12-29T14:34:58;9.40;99.90
12885;DHT22;6510;51.362;7.370;2022-12-29T14:37:24;9.40;99.90
12885;DHT22;6510;51.362;7.370;2022-12-29T14:42:29;9.30;99.90
12885;DHT22;6510;51.362;7.370;2022-12-29T14:45:03;9.30;99.90
12885;DHT22;6510;51.362;7.370;2022-12-29T14:47:35;9.30;99.90
12885;DHT22;6510;51.362;7.370;2022-12-29T14:50:14;9.30;99.90
12885;DHT22;6510;51.362;7.370;2022-12-29T14:52:53;9.30;99.90
12885;DHT22;6510;51.362;7.370;2022-12-29T14:58:06;9.30;99.90
12885;DHT22;6510;51.362;7.370;2022-12-29T15:00:35;9.30;99.90
12885;DHT22;6510;51.362;7.370;2022-12-29T15:05:49;9.40;99.90
12885;DHT22;6510;51.362;7.370;2022-12-29T15:08:18;9.20;99.90
12885;DHT22;6510;51.362;7.370;2022-12-29T15:11:14;9.10;99.90
12885;DHT22;6510;51.362;7.370;2022-12-29T15:13:42;9.10;99.90
12885;DHT22;6510;51.362;7.370;2022-12-29T15:16:31;9.10;99.90
12885;DHT22;6510;51.362;7.370;2022-12-29T15:18:58;9.10;99.90
12885;DHT22;6510;51.362;7.370;2022-12-29T15:21:26;9.20;99.90
12885;DHT22;6510;51.362;7.370;2022-12-29T15:23:52;9.20;99.90
12885;DHT22;6510;51.362;7.370;2022-12-29T15:26:19;9.10;99.90
12885;DHT22;6510;51.362;7.370;2022-12-29T15:28:52;9.00;99.90
12885;DHT22;6510;51.362;7.370;2022-12-29T15:31:22;9.10;99.90
12885;DHT22;6510;51.362;7.370;2022-12-29T15:34:07;9.10;99.90
12885;DHT22;6510;51.362;7.370;2022-12-29T15:36:38;9.10;99.90
12885;DHT22;6510;51.362;7.370;2022-12-29T15:39:30;9.10;99.90
12885;DHT22;6510;51.362;7.370;2022-12-29T15:42:06;9.10;99.90
12885;DHT22;6510;51.362;7.370;2022-12-29T15:44:43;9.00;99.90
12885;DHT22;6510;51.362;7.370;2022-12-29T15:47:21;9.10;99.90
12885;DHT22;6510;51.362;7.370;2022-12-29T15:49:49;9.00;99.90
12885;DHT22;6510;51.362;7.370;2022-12-29T15:52:20;9.00;99.90
12885;DHT22;6510;51.362;7.370;2022-12-29T15:54:49;9.00;99.90
12885;DHT22;6510;51.362;7.370;2022-12-29T15:57:27;9.00;99.90
12885;DHT22;6510;51.362;7.370;2022-12-29T15:59:53;8.90;99.90
12885;DHT22;6510;51.362;7.370;2022-12-29T16:02:23;8.90;99.90
12885;DHT22;6510;51.362;7.370;2022-12-29T16:04:49;8.90;99.90
12885;DHT22;6510;51.362;7.370;2022-12-29T16:07:32;8.90;99.90
12885;DHT22;6510;51.362;7.370;2022-12-29T16:10:01;8.90;99.90
12885;DHT22;6510;51.362;7.370;2022-12-29T16:12:35;8.90;99.90
12885;DHT22;6510;51.362;7.370;2022-12-29T16:15:07;8.90;99.90
12885;DHT22;6510;51.362;7.370;2022-12-29T16:17:48;8.90;99.90
12885;DHT22;6510;51.362;7.370;2022-12-29T16:20:19;8.90;99.90
12885;DHT22;6510;51.362;7.370;2022-12-29T16:22:53;8.90;99.90
12885;DHT22;6510;51.362;7.370;2022-12-29T16:25:28;8.70;99.90
12885;DHT22;6510;51.362;7.370;2022-12-29T16:27:57;8.80;99.90
12885;DHT22;6510;51.362;7.370;2022-12-29T16:30:26;8.80;99.90
12885;DHT22;6510;51.362;7.370;2022-12-29T16:33:00;8.90;99.90
12885;DHT22;6510;51.362;7.370;2022-12-29T16:38:23;8.90;99.90
12885;DHT22;6510;51.362;7.370;2022-12-29T16:40:57;8.80;99.90
12885;DHT22;6510;51.362;7.370;2022-12-29T16:43:30;8.80;99.90
12885;DHT22;6510;51.362;7.370;2022-12-29T16:48:26;8.80;99.90
12885;DHT22;6510;51.362;7.370;2022-12-29T16:51:22;8.70;99.90
12885;DHT22;6510;51.362;7.370;2022-12-29T16:53:52;8.80;99.90
12885;DHT22;6510;51.362;7.370;2022-12-29T16:56:24;8.80;99.90
12885;DHT22;6510;51.362;7.370;2022-12-29T16:59:22;8.80;99.90
12885;DHT22;6510;51.362;7.370;2022-12-29T17:01:49;8.60;99.90
12885;DHT22;6510;51.362;7.370;2022-12-29T17:04:15;8.70;99.90
12885;DHT22;6510;51.362;7.370;2022-12-29T17:06:43;8.70;99.90
12885;DHT22;6510;51.362;7.370;2022-12-29T17:09:23;8.70;99.90
12885;DHT22;6510;51.362;7.370;2022-12-29T17:11:54;8.70;99.90
12885;DHT22;6510;51.362;7.370;2022-12-29T17:14:28;8.70;99.90
12885;DHT22;6510;51.362;7.370;2022-12-29T17:16:55;8.70;99.90
12885;DHT22;6510;51.362;7.370;2022-12-29T17:19:29;8.70;99.90
12885;DHT22;6510;51.362;7.370;2022-12-29T17:21:55;8.70;99.90
12885;DHT22;6510;51.362;7.370;2022-12-29T17:24:21;8.70;99.90
12885;DHT22;6510;51.362;7.370;2022-12-29T17:26:52;8.70;99.90
12885;DHT22;6510;51.362;7.370;2022-12-29T17:29:23;8.70;99.90
12885;DHT22;6510;51.362;7.370;2022-12-29T17:31:49;8.60;99.90
12885;DHT22;6510;51.362;7.370;2022-12-29T17:34:15;8.50;99.90
12885;DHT22;6510;51.362;7.370;2022-12-29T17:36:41;8.60;99.90
12885;DHT22;6510;51.362;7.370;2022-12-29T17:39:09;8.60;99.90
12885;DHT22;6510;51.362;7.370;2022-12-29T17:41:36;8.50;99.90
12885;DHT22;6510;51.362;7.370;2022-12-29T17:44:01;8.40;99.90
12885;DHT22;6510;51.362;7.370;2022-12-29T17:46:27;8.20;99.90
12885;DHT22;6510;51.362;7.370;2022-12-29T17:48:53;7.90;99.90
12885;DHT22;6510;51.362;7.370;2022-12-29T17:51:20;7.60;99.90
12885;DHT22;6510;51.362;7.370;2022-12-29T17:53:46;7.40;99.90
12885;DHT22;6510;51.362;7.370;2022-12-29T17:56:12;7.30;99.90
12885;DHT22;6510;51.362;7.370;2022-12-29T17:58:37;7.30;99.90
12885;DHT22;6510;51.362;7.370;2022-12-29T18:01:03;7.20;99.90
12885;DHT22;6510;51.362;7.370;2022-12-29T18:03:32;7.30;99.90
12885;DHT22;6510;51.362;7.370;2022-12-29T18:05:58;7.30;99.90
12885;DHT22;6510;51.362;7.370;2022-12-29T18:08:24;7.30;99.90
12885;DHT22;6510;51.362;7.370;2022-12-29T18:10:50;7.30;99.90
12885;DHT22;6510;51.362;7.370;2022-12-29T18:13:21;7.30;99.90
12885;DHT22;6510;51.362;7.370;2022-12-29T18:15:48;7.30;99.90
12885;DHT22;6510;51.362;7.370;2022-12-29T18:18:25;7.10;99.90
12885;DHT22;6510;51.362;7.370;2022-12-29T18:20:54;7.00;99.90
12885;DHT22;6510;51.362;7.370;2022-12-29T18:23:30;7.00;99.90
12885;DHT22;6510;51.362;7.370;2022-12-29T18:28:37;7.00;99.90
12885;DHT22;6510;51.362;7.370;2022-12-29T18:31:02;6.90;99.90
12885;DHT22;6510;51.362;7.370;2022-12-29T18:33:29;6.70;99.90
12885;DHT22;6510;51.362;7.370;2022-12-29T18:36:00;6.70;99.90
12885;DHT22;6510;51.362;7.370;2022-12-29T18:38:26;6.70;99.90
12885;DHT22;6510;51.362;7.370;2022-12-29T18:40:52;6.70;99.90
12885;DHT22;6510;51.362;7.370;2022-12-29T18:43:18;6.60;99.90
12885;DHT22;6510;51.362;7.370;2022-12-29T18:45:44;6.60;99.90
12885;DHT22;6510;51.362;7.370;2022-12-29T18:48:15;6.70;99.90